createdAt,value
2022-12-06T00:00:29.517Z,22.46
2022-12-06T00:01:29.600Z,22.45
2022-12-06T00:02:29.572Z,22.42
2022-12-06T00:03:29.564Z,22.41
2022-12-06T00:04:29.687Z,22.44
2022-12-06T00:05:29.496Z,22.38
2022-12-06T00:06:29.447Z,22.44
2022-12-06T00:07:30.022Z,22.36
2022-12-06T00:08:29.448Z,22.39
2022-12-06T00:09:29.423Z,22.42
2022-12-06T00:10:29.416Z,22.39
2022-12-06T00:11:29.403Z,22.48
2022-12-06T00:12:29.396Z,22.44
2022-12-06T00:13:29.388Z,22.45
2022-12-06T00:14:29.381Z,22.38
2022-12-06T00:15:29.376Z,22.45
2022-12-06T00:16:29.446Z,22.41
2022-12-06T00:17:29.359Z,22.44
2022-12-06T00:18:29.353Z,22.49
2022-12-06T00:19:29.344Z,22.39
2022-12-06T00:20:29.337Z,22.35
2022-12-06T00:21:29.367Z,22.41
2022-12-06T00:22:29.345Z,22.42
2022-12-06T00:23:31.720Z,22.44
2022-12-06T00:24:29.363Z,22.39
2022-12-06T00:25:29.326Z,22.42
2022-12-06T00:26:29.318Z,22.38
2022-12-06T00:27:29.309Z,22.33
2022-12-06T00:28:29.331Z,22.33
2022-12-06T00:29:29.296Z,22.29
2022-12-06T00:30:29.291Z,22.35
2022-12-06T00:31:29.362Z,22.36
2022-12-06T00:32:29.300Z,22.36
2022-12-06T00:33:29.290Z,22.36
2022-12-06T00:34:29.256Z,22.46
2022-12-06T00:35:29.222Z,22.45
2022-12-06T00:36:29.243Z,22.45
2022-12-06T00:37:29.796Z,22.41
2022-12-06T00:38:29.247Z,22.33
2022-12-06T00:39:29.218Z,22.38
2022-12-06T00:40:29.214Z,22.39
2022-12-06T00:41:29.199Z,22.23
2022-12-06T00:42:29.296Z,22.26
2022-12-06T00:43:29.192Z,22.24
2022-12-06T00:44:29.206Z,22.35
2022-12-06T00:45:29.206Z,22.26
2022-12-06T00:46:29.258Z,22.39
2022-12-06T00:47:29.155Z,22.27
2022-12-06T00:48:29.148Z,22.39
2022-12-06T00:49:29.145Z,22.44
2022-12-06T00:50:29.165Z,22.29
2022-12-06T00:51:29.108Z,22.21
2022-12-06T00:52:29.096Z,22.27
2022-12-06T00:53:29.087Z,22.26
2022-12-06T00:54:29.077Z,22.30
2022-12-06T00:55:29.070Z,22.26
2022-12-06T00:56:29.064Z,22.33
2022-12-06T00:57:29.055Z,22.35
2022-12-06T00:58:29.049Z,22.30
2022-12-06T00:59:29.040Z,22.29
2022-12-06T01:00:29.035Z,22.33
2022-12-06T01:01:29.138Z,22.29
2022-12-06T01:02:29.246Z,22.29
2022-12-06T01:03:34.845Z,22.15
2022-12-06T01:04:29.027Z,22.20
2022-12-06T01:05:29.038Z,22.29
2022-12-06T01:06:29.012Z,22.17
2022-12-06T01:07:29.097Z,22.17
2022-12-06T01:08:28.991Z,22.21
2022-12-06T01:09:28.994Z,22.15
2022-12-06T01:10:29.180Z,22.29
2022-12-06T01:11:28.977Z,22.27
2022-12-06T01:12:28.975Z,22.24
2022-12-06T01:13:28.957Z,22.33
2022-12-06T01:14:28.943Z,22.38
2022-12-06T01:15:28.933Z,22.35
2022-12-06T01:16:28.971Z,22.41
2022-12-06T01:17:28.926Z,22.33
2022-12-06T01:18:28.912Z,22.44
2022-12-06T01:19:28.911Z,22.31
2022-12-06T01:20:28.896Z,22.46
2022-12-06T01:21:30.380Z,22.41
2022-12-06T01:22:28.899Z,22.44
2022-12-06T01:23:28.876Z,22.27
2022-12-06T01:24:28.876Z,22.30
2022-12-06T01:25:30.716Z,22.23
2022-12-06T01:26:28.855Z,22.29
2022-12-06T01:27:28.952Z,22.26
2022-12-06T01:28:28.841Z,22.26
2022-12-06T01:29:28.834Z,22.38
2022-12-06T01:30:28.863Z,22.39
2022-12-06T01:32:28.809Z,22.38
2022-12-06T01:33:28.802Z,22.35
2022-12-06T01:34:28.792Z,22.29
2022-12-06T01:35:28.785Z,22.29
2022-12-06T01:36:28.777Z,22.27
2022-12-06T01:37:28.766Z,22.27
2022-12-06T01:38:28.775Z,22.30
2022-12-06T01:39:28.761Z,22.29
2022-12-06T01:40:28.752Z,22.33
2022-12-06T01:41:28.740Z,22.24
2022-12-06T01:42:28.735Z,22.33
2022-12-06T01:43:28.725Z,22.19
2022-12-06T01:44:28.715Z,22.29
2022-12-06T01:45:28.711Z,22.15
2022-12-06T01:46:28.792Z,22.29
2022-12-06T01:47:28.703Z,22.31
2022-12-06T01:48:28.688Z,22.29
2022-12-06T01:49:28.675Z,22.30
2022-12-06T01:50:28.665Z,22.33
2022-12-06T01:51:28.667Z,22.41
2022-12-06T01:52:28.655Z,22.30
2022-12-06T01:53:28.647Z,22.39
2022-12-06T01:54:28.639Z,22.36
2022-12-06T01:55:28.634Z,22.45
2022-12-06T01:56:28.628Z,22.46
2022-12-06T01:57:28.618Z,22.31
2022-12-06T01:58:28.612Z,22.38
2022-12-06T01:59:28.607Z,22.29
2022-12-06T02:00:28.594Z,22.39
2022-12-06T02:01:28.649Z,22.29
2022-12-06T02:02:28.617Z,22.35
2022-12-06T02:03:28.585Z,22.30
2022-12-06T02:04:28.566Z,22.26
2022-12-06T02:05:28.561Z,22.33
2022-12-06T02:06:28.546Z,22.27
2022-12-06T02:07:28.543Z,22.30
2022-12-06T02:08:28.535Z,22.35
2022-12-06T02:09:28.528Z,22.26
2022-12-06T02:10:28.516Z,22.30
2022-12-06T02:11:33.517Z,22.23
2022-12-06T02:12:28.504Z,22.39
2022-12-06T02:13:28.491Z,22.21
2022-12-06T02:14:28.485Z,22.39
2022-12-06T02:15:28.484Z,22.30
2022-12-06T02:16:28.493Z,22.23
2022-12-06T02:17:28.460Z,22.31
2022-12-06T02:18:28.465Z,22.41
2022-12-06T02:19:28.445Z,22.31
2022-12-06T02:20:28.442Z,22.29
2022-12-06T02:21:28.446Z,22.23
2022-12-06T02:22:28.422Z,22.38
2022-12-06T02:23:28.421Z,22.26
2022-12-06T02:24:28.521Z,22.38
2022-12-06T02:25:31.596Z,22.26
2022-12-06T02:26:28.395Z,22.26
2022-12-06T02:27:28.388Z,22.35
2022-12-06T02:28:28.384Z,22.41
2022-12-06T02:29:28.374Z,22.30
2022-12-06T02:30:28.496Z,22.30
2022-12-06T02:31:28.441Z,22.33
2022-12-06T02:32:28.343Z,22.29
2022-12-06T02:33:28.346Z,22.23
2022-12-06T02:34:28.335Z,22.27
2022-12-06T02:35:28.331Z,22.33
2022-12-06T02:36:28.317Z,22.31
2022-12-06T02:37:28.309Z,22.44
2022-12-06T02:38:28.308Z,22.31
2022-12-06T02:39:28.297Z,22.35
2022-12-06T02:40:28.296Z,22.42
2022-12-06T02:41:28.280Z,22.42
2022-12-06T02:42:28.272Z,22.36
2022-12-06T02:43:28.269Z,22.33
2022-12-06T02:44:28.260Z,22.35
2022-12-06T02:45:28.252Z,22.33
2022-12-06T02:46:28.297Z,22.31
2022-12-06T02:47:28.233Z,22.26
2022-12-06T02:48:28.225Z,22.29
2022-12-06T02:49:28.218Z,22.29
2022-12-06T02:50:28.216Z,22.26
2022-12-06T02:51:28.201Z,22.31
2022-12-06T02:52:28.195Z,22.30
2022-12-06T02:53:28.191Z,22.31
2022-12-06T02:54:28.183Z,22.36
2022-12-06T02:55:28.175Z,22.39
2022-12-06T02:56:28.162Z,22.42
2022-12-06T02:57:28.159Z,22.48
2022-12-06T02:58:28.144Z,22.35
2022-12-06T02:59:28.150Z,22.33
2022-12-06T03:00:28.133Z,22.35
2022-12-06T03:01:28.159Z,22.35
2022-12-06T03:02:28.136Z,22.27
2022-12-06T03:03:28.126Z,22.35
2022-12-06T03:04:28.107Z,22.30
2022-12-06T03:05:28.197Z,22.39
2022-12-06T03:06:28.087Z,22.31
2022-12-06T03:07:28.087Z,22.31
2022-12-06T03:08:28.073Z,22.36
2022-12-06T03:09:28.063Z,22.24
2022-12-06T03:10:28.058Z,22.36
2022-12-06T03:11:28.059Z,22.26
2022-12-06T03:12:28.042Z,22.42
2022-12-06T03:13:28.040Z,22.33
2022-12-06T03:14:28.026Z,22.31
2022-12-06T03:15:28.044Z,22.24
2022-12-06T03:16:28.009Z,22.24
2022-12-06T03:17:28.002Z,22.24
2022-12-06T03:18:27.996Z,22.30
2022-12-06T03:19:27.992Z,22.31
2022-12-06T03:20:28.078Z,22.29
2022-12-06T03:21:27.980Z,22.41
2022-12-06T03:22:27.974Z,22.29
2022-12-06T03:23:27.967Z,22.30
2022-12-06T03:24:27.955Z,22.26
2022-12-06T03:25:27.945Z,22.35
2022-12-06T03:26:27.946Z,22.38
2022-12-06T03:27:27.932Z,22.33
2022-12-06T03:28:27.917Z,22.33
2022-12-06T03:29:27.915Z,22.24
2022-12-06T03:30:28.010Z,22.21
2022-12-06T03:31:27.961Z,22.23
2022-12-06T03:32:27.890Z,22.26
2022-12-06T03:33:27.886Z,22.26
2022-12-06T03:34:27.873Z,22.30
2022-12-06T03:35:27.872Z,22.27
2022-12-06T03:36:27.859Z,22.23
2022-12-06T03:37:27.856Z,22.29
2022-12-06T03:38:27.845Z,22.27
2022-12-06T03:39:27.839Z,22.29
2022-12-06T03:40:27.831Z,22.27
2022-12-06T03:41:27.826Z,22.31
2022-12-06T03:42:27.815Z,22.23
2022-12-06T03:43:27.807Z,22.19
2022-12-06T03:44:27.799Z,22.21
2022-12-06T03:45:27.810Z,22.20
2022-12-06T03:46:28.155Z,22.09
2022-12-06T03:47:27.778Z,22.19
2022-12-06T03:48:27.775Z,22.15
2022-12-06T03:49:27.767Z,22.06
2022-12-06T03:50:27.759Z,22.21
2022-12-06T03:51:27.749Z,22.23
2022-12-06T03:52:27.742Z,22.17
2022-12-06T03:53:27.742Z,22.27
2022-12-06T03:54:27.718Z,22.26
2022-12-06T03:55:27.718Z,22.15
2022-12-06T03:56:27.812Z,22.20
2022-12-06T03:57:27.703Z,22.15
2022-12-06T03:58:27.694Z,22.20
2022-12-06T03:59:27.695Z,22.12
2022-12-06T04:00:27.686Z,22.19
2022-12-06T04:01:27.717Z,22.29
2022-12-06T04:02:27.662Z,22.26
2022-12-06T04:03:27.689Z,22.31
2022-12-06T04:04:27.648Z,22.31
2022-12-06T04:05:27.642Z,22.33
2022-12-06T04:06:27.628Z,22.12
2022-12-06T04:07:27.623Z,22.29
2022-12-06T04:08:27.612Z,22.21
2022-12-06T04:09:27.615Z,22.23
2022-12-06T04:10:27.602Z,22.29
2022-12-06T04:11:27.591Z,22.23
2022-12-06T04:12:27.694Z,22.17
2022-12-06T04:13:27.578Z,22.14
2022-12-06T04:14:27.568Z,22.15
2022-12-06T04:15:27.557Z,22.17
2022-12-06T04:16:27.635Z,22.15
2022-12-06T04:17:27.550Z,22.17
2022-12-06T04:18:27.540Z,22.19
2022-12-06T04:19:27.531Z,22.14
2022-12-06T04:20:27.533Z,22.14
2022-12-06T04:21:27.517Z,22.09
2022-12-06T04:22:27.502Z,22.19
2022-12-06T04:23:27.500Z,22.21
2022-12-06T04:24:27.486Z,22.09
2022-12-06T04:25:27.482Z,22.27
2022-12-06T04:26:27.477Z,22.20
2022-12-06T04:27:27.468Z,22.20
2022-12-06T04:28:27.564Z,22.20
2022-12-06T04:29:27.458Z,22.19
2022-12-06T04:30:27.446Z,22.14
2022-12-06T04:31:27.462Z,22.15
2022-12-06T04:32:27.429Z,22.09
2022-12-06T04:33:27.424Z,22.11
2022-12-06T04:34:27.414Z,22.11
2022-12-06T04:35:27.412Z,22.15
2022-12-06T04:36:27.398Z,22.11
2022-12-06T04:37:27.395Z,22.14
2022-12-06T04:38:27.383Z,22.09
2022-12-06T04:39:27.471Z,22.01
2022-12-06T04:40:27.365Z,22.02
2022-12-06T04:41:27.365Z,21.98
2022-12-06T04:42:27.353Z,22.01
2022-12-06T04:43:27.345Z,21.96
2022-12-06T04:44:27.341Z,21.98
2022-12-06T04:45:27.333Z,21.99
2022-12-06T04:46:27.341Z,22.01
2022-12-06T04:47:27.318Z,22.02
2022-12-06T04:48:27.307Z,21.99
2022-12-06T04:49:27.298Z,22.02
2022-12-06T04:50:27.285Z,21.94
2022-12-06T04:51:27.296Z,22.05
2022-12-06T04:52:31.290Z,22.02
2022-12-06T04:53:27.271Z,22.06
2022-12-06T04:54:28.759Z,22.09
2022-12-06T04:55:27.251Z,22.11
2022-12-06T04:56:27.244Z,22.14
2022-12-06T04:57:27.235Z,22.14
2022-12-06T04:58:27.229Z,22.08
2022-12-06T04:59:27.219Z,22.14
2022-12-06T05:00:27.250Z,22.12
2022-12-06T05:01:27.207Z,22.02
2022-12-06T05:02:27.194Z,22.04
2022-12-06T05:03:27.237Z,22.14
2022-12-06T05:04:27.224Z,22.08
2022-12-06T05:05:27.170Z,22.11
2022-12-06T05:06:27.163Z,22.19
2022-12-06T05:07:27.157Z,22.24
2022-12-06T05:08:27.148Z,22.15
2022-12-06T05:09:27.144Z,22.15
2022-12-06T05:10:27.137Z,22.17
2022-12-06T05:11:27.124Z,22.23
2022-12-06T05:12:27.117Z,22.33
2022-12-06T05:13:27.112Z,22.23
2022-12-06T05:14:27.107Z,22.14
2022-12-06T05:15:29.275Z,22.20
2022-12-06T05:16:27.132Z,22.15
2022-12-06T05:17:27.078Z,22.11
2022-12-06T05:18:27.081Z,22.11
2022-12-06T05:19:27.073Z,22.09
2022-12-06T05:20:27.152Z,22.11
2022-12-06T05:21:27.052Z,22.20
2022-12-06T05:22:27.045Z,22.05
2022-12-06T05:23:27.052Z,22.14
2022-12-06T05:24:27.027Z,21.99
2022-12-06T05:25:27.021Z,22.11
2022-12-06T05:26:27.007Z,22.09
2022-12-06T05:27:29.518Z,21.99
2022-12-06T05:28:26.994Z,22.02
2022-12-06T05:29:26.989Z,22.05
2022-12-06T05:30:26.981Z,22.06
2022-12-06T05:31:27.038Z,22.14
2022-12-06T05:32:26.965Z,22.20
2022-12-06T05:33:26.954Z,22.19
2022-12-06T05:34:26.946Z,22.09
2022-12-06T05:35:27.039Z,22.14
2022-12-06T05:36:26.927Z,22.11
2022-12-06T05:37:26.925Z,22.20
2022-12-06T05:38:26.913Z,22.12
2022-12-06T05:39:26.917Z,22.17
2022-12-06T05:40:26.896Z,22.17
2022-12-06T05:41:26.892Z,22.11
2022-12-06T05:42:26.886Z,22.12
2022-12-06T05:43:26.886Z,22.04
2022-12-06T05:44:26.864Z,22.02
2022-12-06T05:45:26.868Z,22.05
2022-12-06T05:46:26.878Z,22.02
2022-12-06T05:47:26.846Z,21.98
2022-12-06T05:48:26.837Z,22.12
2022-12-06T05:49:26.836Z,22.02
2022-12-06T05:50:26.920Z,22.02
2022-12-06T05:51:26.811Z,22.02
2022-12-06T05:52:26.812Z,21.94
2022-12-06T05:53:26.799Z,22.04
2022-12-06T05:54:26.789Z,22.05
2022-12-06T05:55:26.780Z,21.99
2022-12-06T05:56:26.787Z,22.04
2022-12-06T05:57:26.769Z,22.05
2022-12-06T05:58:26.762Z,22.06
2022-12-06T05:59:26.750Z,22.01
2022-12-06T06:00:26.746Z,22.06
2022-12-06T06:01:26.735Z,22.04
2022-12-06T06:02:26.793Z,22.05
2022-12-06T06:03:26.771Z,22.02
2022-12-06T06:04:26.715Z,22.06
2022-12-06T06:05:26.705Z,21.99
2022-12-06T06:06:26.798Z,22.02
2022-12-06T06:07:26.692Z,22.17
2022-12-06T06:08:26.688Z,22.06
2022-12-06T06:09:26.678Z,22.19
2022-12-06T06:10:26.665Z,22.15
2022-12-06T06:11:26.661Z,22.09
2022-12-06T06:12:26.749Z,22.09
2022-12-06T06:13:26.640Z,22.06
2022-12-06T06:14:26.628Z,21.99
2022-12-06T06:15:26.628Z,22.01
2022-12-06T06:16:26.656Z,22.01
2022-12-06T06:17:26.606Z,22.06
2022-12-06T06:18:26.710Z,22.14
2022-12-06T06:19:26.600Z,22.09
2022-12-06T06:20:26.588Z,22.04
2022-12-06T06:21:26.578Z,21.96
2022-12-06T06:22:26.575Z,21.98
2022-12-06T06:23:26.564Z,21.98
2022-12-06T06:24:26.656Z,21.96
2022-12-06T06:25:26.546Z,21.99
2022-12-06T06:26:26.540Z,21.96
2022-12-06T06:27:26.535Z,21.99
2022-12-06T06:28:26.522Z,21.94
2022-12-06T06:29:26.513Z,21.89
2022-12-06T06:30:26.612Z,21.93
2022-12-06T06:31:26.551Z,21.96
2022-12-06T06:32:26.489Z,21.90
2022-12-06T06:33:26.489Z,21.93
2022-12-06T06:34:26.482Z,21.96
2022-12-06T06:35:26.464Z,21.96
2022-12-06T06:36:27.966Z,21.94
2022-12-06T06:37:26.455Z,21.94
2022-12-06T06:38:26.448Z,21.94
2022-12-06T06:39:26.433Z,21.93
2022-12-06T06:40:26.433Z,21.98
2022-12-06T06:41:26.420Z,21.98
2022-12-06T06:42:26.424Z,21.96
2022-12-06T06:43:26.413Z,21.94
2022-12-06T06:44:26.398Z,21.91
2022-12-06T06:45:28.868Z,21.96
2022-12-06T06:46:26.450Z,22.01
2022-12-06T06:47:26.476Z,21.89
2022-12-06T06:48:26.376Z,21.98
2022-12-06T06:49:26.363Z,22.04
2022-12-06T06:50:26.345Z,22.06
2022-12-06T06:51:26.343Z,22.02
2022-12-06T06:52:26.436Z,22.02
2022-12-06T06:53:26.382Z,22.02
2022-12-06T06:54:26.321Z,22.06
2022-12-06T06:55:26.313Z,22.09
2022-12-06T06:56:26.301Z,22.01
2022-12-06T06:57:26.294Z,22.01
2022-12-06T06:58:26.291Z,22.08
2022-12-06T06:59:26.281Z,22.12
2022-12-06T07:00:26.277Z,22.06
2022-12-06T07:01:26.310Z,22.09
2022-12-06T07:02:26.382Z,22.02
2022-12-06T07:03:26.246Z,21.99
2022-12-06T07:04:26.243Z,21.98
2022-12-06T07:05:26.233Z,22.01
2022-12-06T07:06:26.223Z,22.05
2022-12-06T07:07:26.314Z,21.99
2022-12-06T07:08:26.220Z,22.09
2022-12-06T07:09:26.201Z,22.09
2022-12-06T07:10:26.193Z,22.19
2022-12-06T07:11:26.190Z,22.14
2022-12-06T07:12:26.185Z,22.02
2022-12-06T07:13:26.176Z,22.12
2022-12-06T07:14:26.163Z,22.14
2022-12-06T07:15:26.152Z,22.06
2022-12-06T07:16:26.165Z,22.12
2022-12-06T07:17:26.145Z,21.98
2022-12-06T07:18:26.131Z,21.98
2022-12-06T07:19:26.117Z,21.99
2022-12-06T07:20:26.115Z,21.93
2022-12-06T07:21:26.104Z,21.96
2022-12-06T07:22:26.095Z,21.99
2022-12-06T07:23:26.088Z,22.09
2022-12-06T07:24:26.083Z,22.06
2022-12-06T07:25:26.074Z,22.14
2022-12-06T07:26:26.070Z,21.99
2022-12-06T07:27:26.157Z,22.06
2022-12-06T07:28:26.059Z,21.99
2022-12-06T07:29:26.045Z,22.02
2022-12-06T07:30:27.575Z,21.99
2022-12-06T07:31:26.136Z,21.98
2022-12-06T07:32:26.023Z,21.98
2022-12-06T07:33:26.016Z,21.96
2022-12-06T07:34:26.000Z,22.01
2022-12-06T07:35:41.946Z,21.98
2022-12-06T07:36:25.997Z,21.93
2022-12-06T07:37:25.983Z,22.01
2022-12-06T07:38:25.972Z,21.96
2022-12-06T07:39:25.959Z,21.99
2022-12-06T07:40:48.210Z,21.98
2022-12-06T07:41:25.959Z,22.05
2022-12-06T07:42:26.040Z,21.99
2022-12-06T07:43:25.931Z,21.94
2022-12-06T07:44:26.270Z,21.98
2022-12-06T07:45:25.928Z,22.01
2022-12-06T07:46:25.950Z,21.94
2022-12-06T07:47:25.897Z,21.94
2022-12-06T07:48:25.898Z,21.89
2022-12-06T07:49:25.883Z,21.94
2022-12-06T07:50:25.890Z,21.94
2022-12-06T07:51:25.871Z,22.02
2022-12-06T07:52:25.867Z,22.02
2022-12-06T07:53:25.866Z,22.01
2022-12-06T07:54:25.850Z,21.99
2022-12-06T07:55:25.844Z,22.02
2022-12-06T07:56:25.837Z,21.99
2022-12-06T07:57:25.921Z,22.15
2022-12-06T07:58:25.823Z,22.11
2022-12-06T07:59:25.826Z,21.94
2022-12-06T08:00:25.800Z,21.91
2022-12-06T08:01:25.849Z,21.94
2022-12-06T08:02:25.804Z,21.94
2022-12-06T08:03:25.783Z,21.93
2022-12-06T08:04:25.828Z,21.98
2022-12-06T08:05:25.759Z,22.04
2022-12-06T08:06:25.757Z,21.98
2022-12-06T08:07:25.752Z,22.06
2022-12-06T08:08:28.721Z,22.08
2022-12-06T08:09:25.730Z,22.09
2022-12-06T08:10:25.732Z,21.99
2022-12-06T08:11:25.723Z,22.01
2022-12-06T08:12:26.105Z,22.17
2022-12-06T08:13:25.698Z,22.09
2022-12-06T08:14:25.697Z,22.15
2022-12-06T08:15:25.681Z,22.05
2022-12-06T08:16:25.723Z,22.01
2022-12-06T08:17:25.670Z,22.06
2022-12-06T08:18:25.683Z,22.11
2022-12-06T08:19:25.649Z,22.12
2022-12-06T08:20:25.646Z,22.09
2022-12-06T08:21:25.643Z,22.09
2022-12-06T08:22:25.637Z,22.12
2022-12-06T08:23:30.630Z,22.14
2022-12-06T08:24:25.611Z,22.04
2022-12-06T08:25:25.607Z,22.01
2022-12-06T08:26:25.596Z,22.04
2022-12-06T08:27:25.598Z,22.01
2022-12-06T08:28:25.584Z,21.98
2022-12-06T08:29:25.574Z,22.05
2022-12-06T08:30:25.563Z,21.98
2022-12-06T08:31:25.685Z,22.02
2022-12-06T08:32:25.554Z,21.96
2022-12-06T08:33:25.541Z,22.01
2022-12-06T08:34:25.638Z,22.06
2022-12-06T08:35:25.530Z,22.15
2022-12-06T08:36:25.517Z,22.09
2022-12-06T08:37:25.509Z,21.99
2022-12-06T08:38:25.509Z,22.14
2022-12-06T08:39:25.501Z,22.11
2022-12-06T08:40:25.529Z,22.12
2022-12-06T08:41:25.479Z,22.02
2022-12-06T08:42:25.576Z,22.02
2022-12-06T08:43:25.510Z,21.96
2022-12-06T08:44:25.531Z,22.04
2022-12-06T08:45:25.443Z,22.02
2022-12-06T08:46:25.490Z,21.94
2022-12-06T08:47:25.430Z,21.94
2022-12-06T08:48:25.424Z,21.86
2022-12-06T08:49:25.417Z,21.83
2022-12-06T08:50:25.453Z,21.86
2022-12-06T08:51:25.397Z,21.81
2022-12-06T08:52:25.385Z,21.83
2022-12-06T08:53:25.384Z,21.79
2022-12-06T08:54:25.475Z,21.73
2022-12-06T08:55:25.364Z,21.77
2022-12-06T08:56:25.371Z,21.71
2022-12-06T08:57:25.350Z,21.71
2022-12-06T08:58:25.348Z,21.74
2022-12-06T08:59:25.335Z,21.77
2022-12-06T09:00:25.373Z,21.79
2022-12-06T09:01:25.426Z,21.75
2022-12-06T09:02:25.314Z,21.66
2022-12-06T09:03:25.306Z,21.70
2022-12-06T09:04:25.456Z,21.66
2022-12-06T09:05:25.291Z,21.71
2022-12-06T09:06:25.280Z,21.68
2022-12-06T09:07:25.266Z,21.67
2022-12-06T09:08:25.288Z,21.66
2022-12-06T09:09:25.258Z,21.71
2022-12-06T09:10:25.306Z,21.71
2022-12-06T09:11:25.229Z,21.82
2022-12-06T09:12:25.233Z,21.71
2022-12-06T09:13:25.225Z,21.66
2022-12-06T09:14:25.210Z,21.74
2022-12-06T09:15:25.204Z,21.70
2022-12-06T09:16:25.272Z,21.61
2022-12-06T09:17:25.189Z,21.59
2022-12-06T09:18:25.178Z,21.55
2022-12-06T09:19:25.164Z,21.55
2022-12-06T09:20:25.160Z,21.53
2022-12-06T09:21:25.154Z,21.53
2022-12-06T09:22:25.151Z,21.55
2022-12-06T09:23:25.138Z,21.66
2022-12-06T09:24:25.131Z,21.61
2022-12-06T09:25:25.119Z,21.61
2022-12-06T09:26:25.119Z,21.51
2022-12-06T09:27:25.097Z,21.52
2022-12-06T09:28:25.105Z,21.55
2022-12-06T09:29:25.183Z,21.52
2022-12-06T09:30:25.073Z,21.53
2022-12-06T09:31:25.119Z,21.53
2022-12-06T09:32:25.070Z,21.49
2022-12-06T09:33:25.052Z,21.53
2022-12-06T09:34:25.046Z,21.52
2022-12-06T09:35:25.344Z,21.52
2022-12-06T09:36:25.036Z,21.45
2022-12-06T09:37:25.020Z,21.52
2022-12-06T09:38:25.015Z,21.49
2022-12-06T09:39:25.105Z,21.51
2022-12-06T09:40:24.994Z,21.48
2022-12-06T09:41:24.992Z,21.38
2022-12-06T09:42:24.981Z,21.42
2022-12-06T09:43:24.968Z,21.43
2022-12-06T09:44:24.957Z,21.40
2022-12-06T09:45:24.951Z,21.40
2022-12-06T09:46:24.985Z,21.46
2022-12-06T09:47:24.930Z,21.56
2022-12-06T09:48:24.932Z,21.56
2022-12-06T09:49:25.014Z,21.51
2022-12-06T09:50:24.908Z,21.55
2022-12-06T09:51:24.907Z,21.51
2022-12-06T09:52:24.897Z,21.51
2022-12-06T09:53:24.894Z,21.52
2022-12-06T09:54:24.879Z,21.56
2022-12-06T09:55:24.868Z,21.51
2022-12-06T09:56:24.866Z,21.63
2022-12-06T09:57:24.851Z,21.56
2022-12-06T09:58:24.841Z,21.59
2022-12-06T09:59:24.852Z,21.58
2022-12-06T10:00:24.830Z,21.66
2022-12-06T10:01:27.920Z,21.59
2022-12-06T10:02:24.841Z,21.64
2022-12-06T10:03:24.855Z,21.52
2022-12-06T10:04:24.798Z,21.56
2022-12-06T10:05:24.785Z,21.63
2022-12-06T10:06:24.778Z,21.56
2022-12-06T10:07:24.772Z,21.58
2022-12-06T10:08:24.896Z,21.66
2022-12-06T10:09:24.748Z,21.58
2022-12-06T10:10:24.753Z,21.63
2022-12-06T10:11:24.734Z,21.67
2022-12-06T10:12:24.729Z,21.70
2022-12-06T10:13:24.718Z,21.70
2022-12-06T10:14:24.711Z,21.71
2022-12-06T10:15:24.703Z,21.73
2022-12-06T10:16:24.754Z,21.81
2022-12-06T10:17:24.686Z,21.81
2022-12-06T10:18:24.683Z,21.86
2022-12-06T10:19:24.673Z,21.83
2022-12-06T10:20:24.761Z,21.79
2022-12-06T10:21:24.655Z,21.93
2022-12-06T10:22:24.651Z,21.86
2022-12-06T10:23:24.645Z,21.85
2022-12-06T10:24:24.631Z,21.85
2022-12-06T10:25:24.625Z,21.82
2022-12-06T10:26:24.618Z,21.83
2022-12-06T10:27:24.606Z,21.81
2022-12-06T10:28:24.908Z,21.79
2022-12-06T10:29:29.370Z,21.85
2022-12-06T10:30:24.592Z,21.93
2022-12-06T10:31:24.675Z,21.93
2022-12-06T10:32:24.568Z,21.93
2022-12-06T10:33:24.556Z,21.98
2022-12-06T10:34:24.551Z,22.06
2022-12-06T10:35:24.543Z,22.05
2022-12-06T10:36:24.630Z,22.06
2022-12-06T10:37:24.531Z,22.05
2022-12-06T10:38:24.520Z,22.02
2022-12-06T10:39:24.515Z,22.06
2022-12-06T10:40:24.509Z,22.01
2022-12-06T10:41:24.506Z,21.91
2022-12-06T10:42:24.487Z,21.90
2022-12-06T10:43:24.480Z,21.98
2022-12-06T10:44:24.469Z,21.91
2022-12-06T10:45:25.075Z,21.93
2022-12-06T10:46:24.487Z,21.98
2022-12-06T10:47:24.463Z,21.98
2022-12-06T10:48:24.454Z,22.08
2022-12-06T10:49:24.451Z,22.06
2022-12-06T10:50:24.429Z,22.02
2022-12-06T10:51:24.419Z,22.17
2022-12-06T10:52:24.422Z,22.02
2022-12-06T10:53:24.411Z,22.11
2022-12-06T10:54:24.395Z,22.11
2022-12-06T10:55:24.392Z,22.06
2022-12-06T10:56:24.382Z,22.08
2022-12-06T10:57:24.374Z,22.19
2022-12-06T10:58:24.369Z,22.12
2022-12-06T10:59:24.354Z,22.19
2022-12-06T11:00:24.384Z,22.20
2022-12-06T11:01:24.400Z,22.17
2022-12-06T11:02:24.430Z,22.23
2022-12-06T11:03:24.323Z,22.12
2022-12-06T11:04:24.324Z,22.27
2022-12-06T11:05:24.323Z,22.30
2022-12-06T11:06:24.303Z,22.33
2022-12-06T11:07:24.292Z,22.27
2022-12-06T11:08:24.383Z,22.29
2022-12-06T11:09:24.287Z,22.39
2022-12-06T11:10:24.274Z,22.45
2022-12-06T11:11:24.270Z,22.33
2022-12-06T11:12:28.080Z,22.41
2022-12-06T11:13:24.258Z,22.48
2022-12-06T11:14:24.249Z,22.44
2022-12-06T11:15:24.242Z,22.45
2022-12-06T11:16:24.287Z,22.46
2022-12-06T11:17:24.222Z,22.51
2022-12-06T11:18:24.223Z,22.51
2022-12-06T11:19:24.209Z,22.51
2022-12-06T11:20:24.199Z,22.52
2022-12-06T11:21:24.189Z,22.42
2022-12-06T11:22:24.190Z,22.39
2022-12-06T11:23:24.187Z,22.33
2022-12-06T11:24:24.167Z,22.42
2022-12-06T11:25:24.165Z,22.45
2022-12-06T11:26:24.162Z,22.44
2022-12-06T11:27:24.161Z,22.46
2022-12-06T11:28:24.141Z,22.48
2022-12-06T11:29:24.138Z,22.44
2022-12-06T11:30:24.122Z,22.45
2022-12-06T11:31:24.168Z,22.45
2022-12-06T11:32:24.117Z,22.48
2022-12-06T11:33:24.106Z,22.57
2022-12-06T11:34:24.094Z,22.60
2022-12-06T11:35:24.084Z,22.59
2022-12-06T11:36:24.081Z,22.61
2022-12-06T11:37:24.074Z,22.60
2022-12-06T11:38:24.071Z,22.61
2022-12-06T11:39:24.069Z,22.64
2022-12-06T11:40:24.058Z,22.64
2022-12-06T11:41:24.143Z,22.60
2022-12-06T11:42:24.042Z,22.61
2022-12-06T11:43:24.029Z,22.67
2022-12-06T11:44:24.026Z,22.67
2022-12-06T11:45:24.014Z,22.66
2022-12-06T11:46:24.202Z,22.70
2022-12-06T11:47:24.001Z,22.67
2022-12-06T11:48:23.995Z,22.57
2022-12-06T11:49:23.987Z,22.66
2022-12-06T11:50:23.975Z,22.67
2022-12-06T11:51:23.972Z,22.74
2022-12-06T11:52:23.964Z,22.72
2022-12-06T11:53:23.957Z,22.72
2022-12-06T11:54:23.946Z,22.70
2022-12-06T11:55:23.935Z,22.67
2022-12-06T11:56:23.948Z,22.72
2022-12-06T11:57:23.931Z,22.74
2022-12-06T11:58:23.919Z,22.86
2022-12-06T11:59:23.912Z,22.89
2022-12-06T12:00:23.899Z,22.91
2022-12-06T12:01:23.898Z,23.09
2022-12-06T12:02:23.942Z,23.11
2022-12-06T12:03:23.930Z,22.94
2022-12-06T12:04:23.867Z,23.12
2022-12-06T12:05:23.869Z,23.03
2022-12-06T12:06:23.865Z,23.01
2022-12-06T12:07:23.846Z,23.09
2022-12-06T12:08:27.228Z,23.03
2022-12-06T12:09:23.833Z,23.03
2022-12-06T12:10:23.823Z,23.06
2022-12-06T12:11:23.825Z,23.12
2022-12-06T12:12:23.821Z,23.01
2022-12-06T12:13:23.813Z,23.12
2022-12-06T12:14:23.796Z,23.03
2022-12-06T12:15:23.794Z,23.09
2022-12-06T12:16:23.857Z,23.03
2022-12-06T12:17:23.764Z,23.18
2022-12-06T12:18:23.761Z,23.15
2022-12-06T12:19:23.754Z,23.21
2022-12-06T12:20:23.747Z,23.22
2022-12-06T12:21:23.735Z,23.23
2022-12-06T12:22:23.725Z,23.18
2022-12-06T12:23:23.725Z,23.16
2022-12-06T12:24:23.719Z,23.18
2022-12-06T12:25:23.919Z,23.19
2022-12-06T12:26:23.704Z,23.16
2022-12-06T12:27:28.375Z,23.15
2022-12-06T12:28:23.799Z,23.18
2022-12-06T12:29:23.683Z,23.23
2022-12-06T12:30:23.681Z,23.21
2022-12-06T12:31:23.747Z,23.19
2022-12-06T12:32:23.661Z,23.26
2022-12-06T12:33:23.658Z,23.23
2022-12-06T12:34:23.650Z,23.23
2022-12-06T12:35:23.638Z,23.34
2022-12-06T12:36:23.635Z,23.18
2022-12-06T12:37:23.628Z,23.26
2022-12-06T12:38:23.617Z,23.31
2022-12-06T12:39:23.613Z,23.29
2022-12-06T12:40:23.614Z,23.29
2022-12-06T12:41:23.607Z,23.29
2022-12-06T12:42:23.591Z,23.29
2022-12-06T12:43:23.591Z,23.41
2022-12-06T12:44:39.752Z,23.37
2022-12-06T12:45:23.576Z,23.26
2022-12-06T12:46:23.613Z,23.32
2022-12-06T12:47:23.561Z,23.29
2022-12-06T12:48:23.552Z,23.31
2022-12-06T12:49:23.543Z,23.34
2022-12-06T12:50:23.537Z,23.22
2022-12-06T12:51:23.531Z,23.42
2022-12-06T12:52:23.531Z,23.49
2022-12-06T12:53:23.532Z,23.45